createdAt,value
2022-12-12T00:00:41.590Z,-0.46
2022-12-12T00:03:09.393Z,-0.46
2022-12-12T00:05:36.731Z,-0.58
2022-12-12T00:08:04.261Z,-0.50
2022-12-12T00:10:32.351Z,-0.45
2022-12-12T00:12:59.655Z,-0.46
2022-12-12T00:15:27.897Z,-0.45
2022-12-12T00:17:55.274Z,-0.40
2022-12-12T00:20:22.492Z,-0.56
2022-12-12T00:22:49.671Z,-0.46
2022-12-12T00:25:16.789Z,-0.42
2022-12-12T00:27:44.032Z,-0.66
2022-12-12T00:30:11.529Z,-0.49
2022-12-12T00:32:38.631Z,-0.54
2022-12-12T00:35:09.897Z,-0.40
2022-12-12T00:37:37.077Z,-0.53
2022-12-12T00:40:06.521Z,-0.45
2022-12-12T00:42:34.016Z,-0.56
2022-12-12T00:45:02.055Z,-0.55
2022-12-12T00:47:29.199Z,-0.64
2022-12-12T00:49:56.289Z,-0.61
2022-12-12T00:52:23.416Z,-0.58
2022-12-12T00:54:50.722Z,-0.62
2022-12-12T00:57:17.835Z,-0.70
2022-12-12T00:59:44.902Z,-0.59
2022-12-12T01:02:12.891Z,-0.61
2022-12-12T01:04:40.091Z,-0.57
2022-12-12T01:07:07.206Z,-0.57
2022-12-12T01:09:34.611Z,-0.64
2022-12-12T01:12:01.985Z,-0.59
2022-12-12T01:14:29.087Z,-0.50
2022-12-12T01:16:56.409Z,-0.49
2022-12-12T01:19:23.487Z,-0.48
2022-12-12T01:21:52.126Z,-0.56
2022-12-12T01:24:19.214Z,-0.55
2022-12-12T01:26:46.240Z,-0.55
2022-12-12T01:29:13.576Z,-0.51
2022-12-12T01:31:43.635Z,-0.55
2022-12-12T01:34:11.089Z,-0.56
2022-12-12T01:36:38.263Z,-0.55
2022-12-12T01:39:05.932Z,-0.55
2022-12-12T01:41:33.217Z,-0.54
2022-12-12T01:44:02.616Z,-0.56
2022-12-12T01:46:33.322Z,-0.54
2022-12-12T01:49:11.487Z,-0.55
2022-12-12T01:51:40.057Z,-0.57
2022-12-12T01:54:15.419Z,-0.60
2022-12-12T01:56:44.725Z,-0.60
2022-12-12T01:59:16.202Z,-0.65
2022-12-12T02:01:43.854Z,-0.86
2022-12-12T02:04:15.392Z,-0.71
2022-12-12T02:06:43.525Z,-0.65
2022-12-12T02:09:13.220Z,-0.67
2022-12-12T02:11:54.120Z,-0.69
2022-12-12T02:14:29.037Z,-0.71
2022-12-12T02:17:26.314Z,-0.67
2022-12-12T02:20:12.327Z,-0.67
2022-12-12T02:23:08.573Z,-0.65
2022-12-12T02:25:41.505Z,-0.66
2022-12-12T02:29:05.852Z,-0.64
2022-12-12T02:31:51.586Z,-0.63
2022-12-12T02:34:45.679Z,-0.67
2022-12-12T02:37:41.302Z,-0.62
2022-12-12T02:40:45.698Z,-0.64
2022-12-12T02:43:31.300Z,-0.61
2022-12-12T02:46:05.116Z,-0.62
2022-12-12T02:48:54.140Z,-0.63
2022-12-12T02:51:23.030Z,-0.73
2022-12-12T02:53:50.116Z,-0.67
2022-12-12T02:56:47.430Z,-0.68
2022-12-12T02:59:17.681Z,-0.76
2022-12-12T03:02:11.254Z,-0.93
2022-12-12T03:05:06.583Z,-0.68
2022-12-12T03:07:49.125Z,-0.69
2022-12-12T03:10:23.474Z,-0.78
2022-12-12T03:12:50.486Z,-0.69
2022-12-12T03:15:28.266Z,-0.72
2022-12-12T03:18:11.598Z,-0.75
2022-12-12T03:20:47.635Z,-0.74
2022-12-12T03:23:17.780Z,-0.81
2022-12-12T03:25:57.510Z,-0.77
2022-12-12T03:28:43.764Z,-0.80
2022-12-12T03:31:13.069Z,-0.89
2022-12-12T03:33:50.455Z,-0.78
2022-12-12T03:36:47.058Z,-0.92
2022-12-12T03:39:21.175Z,-0.79
2022-12-12T03:41:56.530Z,-0.81
2022-12-12T03:44:38.149Z,-0.81
2022-12-12T03:47:18.841Z,-0.89
2022-12-12T03:49:54.421Z,-0.90
2022-12-12T03:52:33.471Z,-0.82
2022-12-12T03:55:10.366Z,-0.90
2022-12-12T03:57:51.945Z,-0.85
2022-12-12T04:00:19.220Z,-0.93
2022-12-12T04:03:16.236Z,-0.89
2022-12-12T04:06:06.539Z,-0.92
2022-12-12T04:08:36.077Z,-1.01
2022-12-12T04:11:38.411Z,-1.14
2022-12-12T04:14:28.577Z,-0.98
2022-12-12T04:17:00.866Z,-1.07
2022-12-12T04:20:04.723Z,-1.04
2022-12-12T04:22:57.531Z,-1.08
2022-12-12T04:26:00.173Z,-1.11
2022-12-12T04:28:29.131Z,-1.26
2022-12-12T04:31:03.039Z,-1.23
2022-12-12T04:33:41.749Z,-1.20
2022-12-12T04:36:11.845Z,-1.21
2022-12-12T04:38:41.810Z,-1.21
2022-12-12T04:41:12.396Z,-1.22
2022-12-12T04:43:43.266Z,-1.24
2022-12-12T04:46:19.616Z,-1.30
2022-12-12T04:48:52.988Z,-1.36
2022-12-12T04:51:31.438Z,-1.43
2022-12-12T04:54:21.882Z,-1.48
2022-12-12T04:56:54.584Z,-1.69
2022-12-12T04:59:22.558Z,-1.63
2022-12-12T05:01:54.197Z,-1.68
2022-12-12T05:04:36.154Z,-1.79
2022-12-12T05:07:11.289Z,-1.73
2022-12-12T05:09:38.950Z,-1.78
2022-12-12T05:12:07.033Z,-1.82
2022-12-12T05:14:34.636Z,-1.84
2022-12-12T05:17:09.178Z,-1.87
2022-12-12T05:19:36.277Z,-2.10
2022-12-12T05:22:03.625Z,-2.09
2022-12-12T05:24:31.333Z,-2.15
2022-12-12T05:26:59.587Z,-2.03
2022-12-12T05:29:26.790Z,-2.11
2022-12-12T05:31:53.894Z,-2.08
2022-12-12T05:34:20.964Z,-2.12
2022-12-12T05:36:48.672Z,-2.21
2022-12-12T05:39:15.989Z,-2.20
2022-12-12T05:41:43.217Z,-2.18
2022-12-12T05:44:10.278Z,-2.21
2022-12-12T05:46:37.397Z,-2.26
2022-12-12T05:49:04.912Z,-2.25
2022-12-12T05:51:32.117Z,-2.28
2022-12-12T05:53:59.189Z,-2.44
2022-12-12T05:56:26.238Z,-2.31
2022-12-12T05:58:53.277Z,-2.33
2022-12-12T06:01:20.383Z,-2.34
2022-12-12T06:03:47.628Z,-2.37
2022-12-12T06:06:15.007Z,-2.49
2022-12-12T06:08:42.082Z,-2.39
2022-12-12T06:11:09.127Z,-2.45
2022-12-12T06:13:37.154Z,-2.45
2022-12-12T06:16:09.739Z,-2.43
2022-12-12T06:18:37.333Z,-2.53
2022-12-12T06:21:06.799Z,-2.60
2022-12-12T06:23:38.671Z,-2.61
2022-12-12T06:26:08.180Z,-2.53
2022-12-12T06:28:36.454Z,-2.90
2022-12-12T06:31:09.731Z,-2.56
2022-12-12T06:33:38.738Z,-2.57
2022-12-12T06:36:16.210Z,-2.60
2022-12-12T06:38:43.358Z,-2.87
2022-12-12T06:41:14.710Z,-2.68
2022-12-12T06:43:42.156Z,-2.77
2022-12-12T06:46:14.437Z,-2.67
2022-12-12T06:48:41.499Z,-2.76
2022-12-12T06:51:15.862Z,-2.72
2022-12-12T06:53:43.025Z,-2.79
2022-12-12T06:56:15.157Z,-2.73
2022-12-12T06:58:42.314Z,-2.83
2022-12-12T07:01:14.347Z,-2.77
2022-12-12T07:03:41.531Z,-2.78
2022-12-12T07:06:08.984Z,-2.81
2022-12-12T07:08:36.896Z,-2.88
2022-12-12T07:11:16.359Z,-2.86
2022-12-12T07:13:43.655Z,-2.93
2022-12-12T07:16:11.768Z,-2.90
2022-12-12T07:18:39.045Z,-2.93
2022-12-12T07:21:07.750Z,-2.97
2022-12-12T07:23:35.723Z,-2.97
2022-12-12T07:26:04.875Z,-3.08
2022-12-12T07:28:32.283Z,-3.00
2022-12-12T07:31:01.503Z,-3.02
2022-12-12T07:33:39.514Z,-3.02
2022-12-12T07:36:11.056Z,-3.05
2022-12-12T07:38:38.427Z,-3.09
2022-12-12T07:41:11.133Z,-3.08
2022-12-12T07:43:43.651Z,-3.10
2022-12-12T07:46:15.476Z,-3.21
2022-12-12T07:48:43.133Z,-3.23
2022-12-12T07:51:10.296Z,-3.12
2022-12-12T07:53:37.430Z,-3.20
2022-12-12T07:56:08.981Z,-3.17
2022-12-12T07:58:36.784Z,-3.18
2022-12-12T08:01:23.270Z,-3.22
2022-12-12T08:03:51.035Z,-3.25
2022-12-12T08:06:19.700Z,-3.27
2022-12-12T08:08:48.571Z,-3.20
2022-12-12T08:11:18.313Z,-3.19
2022-12-12T08:13:45.917Z,-3.29
2022-12-12T08:16:16.243Z,-3.21
2022-12-12T08:18:43.973Z,-3.22
2022-12-12T08:21:13.046Z,-3.22
2022-12-12T08:23:41.200Z,-3.23
2022-12-12T08:26:11.444Z,-3.30
2022-12-12T08:28:41.254Z,-3.22
2022-12-12T08:31:08.969Z,-3.46
2022-12-12T08:33:36.278Z,-3.24
2022-12-12T08:36:14.034Z,-3.31
2022-12-12T08:38:41.852Z,-3.18
2022-12-12T08:41:10.236Z,-3.29
2022-12-12T08:43:39.028Z,-3.21
2022-12-12T08:46:11.006Z,-3.14
2022-12-12T08:48:43.697Z,-3.14
2022-12-12T08:51:14.779Z,-3.22
2022-12-12T08:53:44.881Z,-3.24
2022-12-12T08:56:12.401Z,-3.18
2022-12-12T08:58:41.857Z,-3.13
2022-12-12T09:01:17.261Z,-3.06
2022-12-12T09:03:44.507Z,-3.04
2022-12-12T09:06:12.313Z,-3.13
2022-12-12T09:08:39.868Z,-3.04
2022-12-12T09:11:11.053Z,-3.15
2022-12-12T09:13:38.554Z,-2.99
2022-12-12T09:16:07.520Z,-3.15
2022-12-12T09:18:36.041Z,-3.04
2022-12-12T09:21:03.919Z,-3.12
2022-12-12T09:23:31.226Z,-2.99
2022-12-12T09:25:58.711Z,-2.98
2022-12-12T09:28:26.769Z,-2.93
2022-12-12T09:30:53.913Z,-3.03
2022-12-12T09:33:21.033Z,-3.04
2022-12-12T09:35:57.604Z,-2.88
2022-12-12T09:38:24.718Z,-2.90
2022-12-12T09:41:04.087Z,-2.92
2022-12-12T09:43:39.066Z,-3.03
2022-12-12T09:46:20.167Z,-2.96
2022-12-12T09:48:47.704Z,-2.84
2022-12-12T09:51:14.831Z,-2.82
2022-12-12T09:53:45.133Z,-2.89
2022-12-12T09:56:27.807Z,-2.72
2022-12-12T09:59:30.452Z,-2.66
2022-12-12T10:02:13.058Z,-2.64
2022-12-12T10:04:52.581Z,-2.62
2022-12-12T10:07:26.937Z,-2.56
2022-12-12T10:10:03.078Z,-2.52
2022-12-12T10:12:32.024Z,-2.50
2022-12-12T10:15:05.546Z,-2.49
2022-12-12T10:17:40.687Z,-2.50
2022-12-12T10:20:21.992Z,-2.48
2022-12-12T10:22:56.312Z,-2.44
2022-12-12T10:25:28.755Z,-2.39
2022-12-12T10:28:11.445Z,-2.35
2022-12-12T10:30:46.819Z,-2.32
2022-12-12T10:33:35.270Z,-2.29
2022-12-12T10:36:27.121Z,-2.27
2022-12-12T10:39:12.776Z,-2.25
2022-12-12T10:41:54.787Z,-2.29
2022-12-12T10:44:51.077Z,-2.20
2022-12-12T10:47:18.433Z,-2.18
2022-12-12T10:49:45.465Z,-2.15
2022-12-12T10:52:22.673Z,-2.17
2022-12-12T10:54:59.274Z,-2.20
2022-12-12T10:57:28.809Z,-2.16
2022-12-12T10:59:58.300Z,-2.15
2022-12-12T11:02:26.234Z,-1.99
2022-12-12T11:05:05.572Z,-1.89
2022-12-12T11:07:38.804Z,-1.94
2022-12-12T11:10:22.908Z,-1.79
2022-12-12T11:13:01.971Z,-1.79
2022-12-12T11:15:43.965Z,-1.75
2022-12-12T11:18:16.756Z,-1.75
2022-12-12T11:21:03.477Z,-1.74
2022-12-12T11:23:32.518Z,-1.73
2022-12-12T11:26:12.887Z,-1.67
2022-12-12T11:28:43.022Z,-1.64
2022-12-12T11:31:14.347Z,-1.57
2022-12-12T11:33:48.443Z,-1.62
2022-12-12T11:36:18.067Z,-1.59
2022-12-12T11:38:51.570Z,-1.54
2022-12-12T11:41:19.250Z,-1.53
2022-12-12T11:43:49.278Z,-1.40
2022-12-12T11:46:18.896Z,-1.44
2022-12-12T11:48:52.087Z,-1.44
2022-12-12T11:51:35.314Z,-1.43
2022-12-12T11:54:13.559Z,-1.41
2022-12-12T11:56:57.870Z,-1.37
2022-12-12T11:59:44.938Z,-1.34
2022-12-12T12:02:40.111Z,-1.43
2022-12-12T12:05:23.890Z,-1.24
2022-12-12T12:08:35.957Z,-1.28
2022-12-12T12:11:29.108Z,-1.25
2022-12-12T12:14:20.533Z,-1.21
2022-12-12T12:17:11.311Z,-1.21
2022-12-12T12:19:41.455Z,-1.18
2022-12-12T12:22:43.333Z,-1.15
2022-12-12T12:25:33.748Z,-1.14
2022-12-12T12:28:19.362Z,-1.10
2022-12-12T12:31:20.055Z,-1.10
2022-12-12T12:34:13.596Z,-1.06
2022-12-12T12:37:01.672Z,-1.02
2022-12-12T12:40:01.746Z,-0.98
2022-12-12T12:42:49.472Z,-1.00
2022-12-12T12:45:20.162Z,-1.01
2022-12-12T12:47:54.423Z,-0.94
2022-12-12T12:50:38.127Z,-0.95
2022-12-12T12:53:22.905Z,-0.98
2022-12-12T12:55:53.907Z,-1.10
2022-12-12T12:58:26.137Z,-0.94
2022-12-12T13:01:11.292Z,-0.92
2022-12-12T13:03:46.734Z,-0.91
2022-12-12T13:06:20.882Z,-0.88
2022-12-12T13:08:52.257Z,-0.89
2022-12-12T13:11:38.020Z,-0.97
2022-12-12T13:14:43.519Z,-0.89
2022-12-12T13:17:18.697Z,-0.90
2022-12-12T13:19:49.663Z,-0.83
2022-12-12T13:22:27.504Z,-0.77
2022-12-12T13:25:20.730Z,-0.77
2022-12-12T13:27:53.856Z,-0.75
2022-12-12T13:31:05.674Z,-0.77
2022-12-12T13:33:47.276Z,-0.81
2022-12-12T13:36:29.570Z,-0.75
2022-12-12T13:39:00.247Z,-0.73
2022-12-12T13:41:27.700Z,-0.75
2022-12-12T13:43:59.605Z,-0.74
2022-12-12T13:46:27.270Z,-0.75
2022-12-12T13:49:18.836Z,-0.71
2022-12-12T13:51:46.202Z,-0.71
2022-12-12T13:54:14.599Z,-0.65
2022-12-12T13:56:56.917Z,-0.57
2022-12-12T13:59:25.298Z,-0.59
2022-12-12T14:01:59.133Z,-0.62
2022-12-12T14:04:33.215Z,-0.61
2022-12-12T14:07:18.874Z,-0.67
2022-12-12T14:09:52.245Z,-0.70
2022-12-12T14:12:33.534Z,-0.71
2022-12-12T14:15:08.131Z,-0.63
2022-12-12T14:17:42.720Z,-0.66
2022-12-12T14:20:43.736Z,-0.74
2022-12-12T14:23:25.695Z,-0.78
2022-12-12T14:25:52.914Z,-0.80
2022-12-12T14:28:33.791Z,-0.77
2022-12-12T14:31:03.615Z,-0.77
2022-12-12T14:33:53.882Z,-0.74
2022-12-12T14:36:32.935Z,-0.73
2022-12-12T14:39:45.039Z,-0.63
2022-12-12T14:43:20.264Z,-0.60
2022-12-12T14:45:38.713Z,-0.47
2022-12-12T14:48:16.684Z,-0.47
2022-12-12T14:50:57.390Z,-0.57
2022-12-12T14:53:38.374Z,-0.55
2022-12-12T14:56:12.074Z,-0.64
2022-12-12T14:58:41.333Z,-0.75
2022-12-12T15:01:08.852Z,-0.83
2022-12-12T15:03:44.517Z,-0.91
2022-12-12T15:06:23.495Z,-0.98
2022-12-12T15:08:52.417Z,-1.06
2022-12-12T15:11:25.685Z,-1.18
2022-12-12T15:14:01.315Z,-1.21
2022-12-12T15:16:48.682Z,-1.26
2022-12-12T15:19:23.031Z,-1.31
2022-12-12T15:21:50.398Z,-1.46
2022-12-12T15:24:23.224Z,-1.39
2022-12-12T15:26:54.071Z,-1.47
2022-12-12T15:29:27.719Z,-1.49
2022-12-12T15:32:02.668Z,-1.52
2022-12-12T15:34:32.427Z,-1.58
2022-12-12T15:37:17.587Z,-1.64
2022-12-12T15:39:45.152Z,-1.68
2022-12-12T15:42:14.457Z,-1.70
2022-12-12T15:44:44.653Z,-1.73
2022-12-12T15:47:14.633Z,-1.75
2022-12-12T15:49:44.975Z,-1.78
2022-12-12T15:52:24.932Z,-1.80
2022-12-12T15:54:58.708Z,-1.81
2022-12-12T15:57:30.853Z,-1.82
2022-12-12T16:00:23.349Z,-1.88
2022-12-12T16:03:03.391Z,-1.87
2022-12-12T16:05:39.173Z,-1.94
2022-12-12T16:08:32.264Z,-1.91
2022-12-12T16:11:31.754Z,-1.93
2022-12-12T16:13:59.896Z,-1.96
2022-12-12T16:16:47.200Z,-1.99
2022-12-12T16:19:41.994Z,-2.05
2022-12-12T16:22:36.808Z,-2.07
2022-12-12T16:25:17.442Z,-2.10
2022-12-12T16:27:46.372Z,-2.15
2022-12-12T16:30:17.142Z,-2.14
2022-12-12T16:32:44.472Z,-2.20
2022-12-12T16:35:16.640Z,-2.17
2022-12-12T16:37:43.786Z,-2.18
2022-12-12T16:40:15.731Z,-2.20
2022-12-12T16:43:01.759Z,-2.20
2022-12-12T16:45:29.824Z,-2.25
2022-12-12T16:47:59.015Z,-2.23
2022-12-12T16:50:26.125Z,-2.24
2022-12-12T16:52:53.353Z,-2.33
2022-12-12T16:55:23.066Z,-2.31
2022-12-12T16:57:50.651Z,-2.35
2022-12-12T17:00:18.196Z,-2.37
2022-12-12T17:02:45.440Z,-2.41
2022-12-12T17:05:20.567Z,-2.42
2022-12-12T17:07:47.677Z,-2.50
2022-12-12T17:10:15.120Z,-2.47
2022-12-12T17:12:42.653Z,-2.49
2022-12-12T17:15:30.222Z,-2.51
2022-12-12T17:17:57.863Z,-2.56
2022-12-12T17:20:25.278Z,-2.55
2022-12-12T17:22:52.559Z,-2.55
2022-12-12T17:25:21.521Z,-2.61
2022-12-12T17:27:49.428Z,-2.64
2022-12-12T17:30:16.707Z,-2.53
2022-12-12T17:33:51.124Z,-2.49
2022-12-12T17:35:32.022Z,-2.53
2022-12-12T17:37:59.414Z,-2.60
2022-12-12T17:40:26.501Z,-2.64
2022-12-12T17:42:53.502Z,-2.69
2022-12-12T17:45:20.516Z,-2.72
2022-12-12T17:47:47.701Z,-2.84
2022-12-12T17:50:15.082Z,-2.74
2022-12-12T17:52:42.368Z,-2.68
2022-12-12T17:55:53.604Z,-2.73
2022-12-12T17:57:56.661Z,-2.73
2022-12-12T18:00:25.662Z,-2.73
2022-12-12T18:02:52.917Z,-2.74
2022-12-12T18:05:19.948Z,-2.74
2022-12-12T18:07:47.014Z,-2.80
2022-12-12T18:10:14.344Z,-2.86
2022-12-12T18:12:46.881Z,-2.84
2022-12-12T18:15:18.465Z,-2.83
2022-12-12T18:17:45.603Z,-2.84
2022-12-12T18:20:12.887Z,-2.91
2022-12-12T18:22:40.168Z,-2.96
2022-12-12T18:25:07.654Z,-2.99
2022-12-12T18:27:34.946Z,-3.02
2022-12-12T18:30:01.919Z,-3.04
2022-12-12T18:32:28.995Z,-3.09
2022-12-12T18:34:56.068Z,-3.16
2022-12-12T18:37:23.270Z,-3.15
2022-12-12T18:39:50.298Z,-3.20
2022-12-12T18:42:17.271Z,-3.21
2022-12-12T18:44:44.283Z,-3.20
2022-12-12T18:47:12.025Z,-3.13
2022-12-12T18:49:39.039Z,-3.10
2022-12-12T18:52:06.611Z,-3.13
2022-12-12T18:54:34.237Z,-3.13
2022-12-12T18:57:01.354Z,-3.14
2022-12-12T18:59:28.428Z,-3.19
2022-12-12T19:01:55.437Z,-3.24
2022-12-12T19:04:23.690Z,-3.25
2022-12-12T19:06:51.535Z,-3.24
2022-12-12T19:09:19.943Z,-3.24
2022-12-12T19:11:47.553Z,-3.27
2022-12-12T19:14:16.183Z,-3.30
2022-12-12T19:16:44.576Z,-3.28
2022-12-12T19:19:12.176Z,-3.31
2022-12-12T19:21:43.389Z,-3.31
2022-12-12T19:24:12.886Z,-3.35
2022-12-12T19:26:43.691Z,-3.36
2022-12-12T19:29:16.178Z,-3.35
2022-12-12T19:31:44.201Z,-3.39
2022-12-12T19:34:13.093Z,-3.50
2022-12-12T19:36:41.076Z,-3.51
2022-12-12T19:39:10.209Z,-3.49
2022-12-12T19:41:37.495Z,-3.60
2022-12-12T19:44:08.591Z,-3.53
2022-12-12T19:46:36.304Z,-3.57
2022-12-12T19:49:07.052Z,-3.61
2022-12-12T19:51:39.203Z,-3.62
2022-12-12T19:54:16.437Z,-3.62
2022-12-12T19:56:44.223Z,-3.69
2022-12-12T19:59:13.836Z,-3.67
2022-12-12T20:01:42.093Z,-3.63
2022-12-12T20:04:19.063Z,-3.60
2022-12-12T20:06:47.650Z,-3.62
2022-12-12T20:09:23.529Z,-3.60
2022-12-12T20:11:50.859Z,-3.65
2022-12-12T20:14:20.794Z,-3.62
2022-12-12T20:16:48.943Z,-3.62
2022-12-12T20:19:17.286Z,-3.67
2022-12-12T20:22:03.359Z,-3.71
2022-12-12T20:24:33.048Z,-3.69
2022-12-12T20:27:03.079Z,-3.68
2022-12-12T20:29:31.016Z,-3.79
2022-12-12T20:31:59.747Z,-3.73
2022-12-12T20:34:28.276Z,-3.67
2022-12-12T20:36:55.743Z,-3.69
2022-12-12T20:39:24.734Z,-3.72
2022-12-12T20:41:53.482Z,-3.78
2022-12-12T20:44:20.534Z,-3.83
2022-12-12T20:46:47.557Z,-3.77
2022-12-12T20:49:17.689Z,-3.78
2022-12-12T20:52:01.197Z,-3.86
2022-12-12T20:54:29.594Z,-3.84
2022-12-12T20:56:58.285Z,-3.87
2022-12-12T20:59:26.110Z,-3.87
2022-12-12T21:01:53.604Z,-3.88
2022-12-12T21:04:21.012Z,-3.93
2022-12-12T21:06:49.425Z,-3.89
2022-12-12T21:09:23.817Z,-3.87
2022-12-12T21:11:54.746Z,-3.91
2022-12-12T21:14:22.235Z,-4.02
2022-12-12T21:16:49.231Z,-3.93
2022-12-12T21:19:18.688Z,-3.93
2022-12-12T21:21:46.034Z,-3.93
2022-12-12T21:24:14.622Z,-3.91
2022-12-12T21:26:41.748Z,-3.92
2022-12-12T21:29:09.792Z,-3.95
2022-12-12T21:31:42.336Z,-3.97
2022-12-12T21:34:13.621Z,-3.99
2022-12-12T21:36:41.059Z,-4.04
2022-12-12T21:39:08.290Z,-4.03
2022-12-12T21:41:35.691Z,-4.02
2022-12-12T21:44:02.763Z,-4.04
2022-12-12T21:46:30.077Z,-4.02
2022-12-12T21:49:16.513Z,-4.09
2022-12-12T21:51:43.757Z,-4.16
2022-12-12T21:54:14.007Z,-4.24
2022-12-12T21:56:42.252Z,-4.29
2022-12-12T21:59:11.796Z,-4.35
2022-12-12T22:01:39.696Z,-4.40
2022-12-12T22:04:07.407Z,-4.34
2022-12-12T22:06:36.163Z,-4.34
2022-12-12T22:09:07.049Z,-4.33
2022-12-12T22:11:40.906Z,-4.42
2022-12-12T22:14:16.751Z,-4.42
2022-12-12T22:16:43.884Z,-4.48
2022-12-12T22:19:14.035Z,-4.58
2022-12-12T22:21:43.607Z,-4.52
2022-12-12T22:24:10.890Z,-4.49
2022-12-12T22:26:40.932Z,-4.43
2022-12-12T22:29:12.126Z,-4.47
2022-12-12T22:31:40.118Z,-4.57
2022-12-12T22:34:11.663Z,-4.49
2022-12-12T22:36:40.064Z,-4.48
2022-12-12T22:39:11.983Z,-4.48
2022-12-12T22:41:38.951Z,-4.46
2022-12-12T22:44:07.171Z,-4.46
2022-12-12T22:46:36.971Z,-4.45
2022-12-12T22:49:06.614Z,-4.45
2022-12-12T22:51:34.438Z,-4.51
2022-12-12T22:54:04.458Z,-4.55
2022-12-12T22:56:34.677Z,-4.63
2022-12-12T22:59:02.082Z,-4.65
2022-12-12T23:01:29.699Z,-4.67
2022-12-12T23:03:57.324Z,-4.63
2022-12-12T23:06:36.136Z,-4.61
2022-12-12T23:09:15.839Z,-4.67
2022-12-12T23:11:44.570Z,-4.67
2022-12-12T23:14:17.944Z,-4.63
2022-12-12T23:16:46.234Z,-4.63
2022-12-12T23:19:15.698Z,-4.65
2022-12-12T23:21:43.336Z,-4.72
2022-12-12T23:24:11.576Z,-4.81
2022-12-12T23:26:38.724Z,-4.80
2022-12-12T23:29:09.347Z,-4.82
2022-12-12T23:31:37.844Z,-4.86
2022-12-12T23:34:08.188Z,-4.91
2022-12-12T23:36:38.217Z,-4.89
2022-12-12T23:39:07.709Z,-4.84
2022-12-12T23:41:36.504Z,-4.87
2022-12-12T23:44:06.237Z,-4.83
2022-12-12T23:46:36.133Z,-4.80
2022-12-12T23:49:13.414Z,-4.83
2022-12-12T23:51:48.685Z,-4.80
2022-12-12T23:54:21.491Z,-4.89
2022-12-12T23:56:49.690Z,-4.92
2022-12-12T23:59:18.834Z,-4.96
